Time;durP1;ratioP1;P1;durP2;ratioP2;P2;SDS_P1;SDS_P2;PMS_P1;PMS_P2;Temp;Humidity;BMP_temperature;BMP_pressure;BME280_temperature;BME280_humidity;BME280_pressure;Samples;Min_cycle;Max_cycle;Signal;HPM_P1;HPM_P2
2023/09/22 00:00:11;;;;;;;18.60;9.05;;;20.70;53.70;;;;;;5024351;28;20461;-67
2023/09/22 00:02:37;;;;;;;14.95;8.18;;;20.70;53.80;;;;;;5014253;28;20046;-66
2023/09/22 00:05:04;;;;;;;15.77;8.07;;;20.60;53.80;;;;;;5022393;28;20082;-67
2023/09/22 00:07:29;;;;;;;14.70;6.63;;;20.60;53.80;;;;;;5030797;28;20495;-66
2023/09/22 00:09:56;;;;;;;11.15;6.00;;;20.60;53.80;;;;;;5020522;28;20049;-66
2023/09/22 00:12:22;;;;;;;9.63;5.53;;;20.60;53.90;;;;;;5013998;28;20025;-66
2023/09/22 00:14:47;;;;;;;8.75;5.43;;;20.60;53.90;;;;;;5014106;28;20026;-67
2023/09/22 00:17:13;;;;;;;8.63;5.00;;;20.60;54.00;;;;;;5013946;28;20034;-66
2023/09/22 00:19:39;;;;;;;9.30;5.05;;;20.50;54.00;;;;;;5012302;28;20366;-67
2023/09/22 00:22:05;;;;;;;8.02;4.97;;;20.50;54.00;;;;;;5012594;28;20038;-67
2023/09/22 00:24:31;;;;;;;10.38;4.70;;;20.40;54.00;;;;;;5012993;28;20030;-66
2023/09/22 00:26:57;;;;;;;8.20;4.45;;;20.50;54.10;;;;;;5012684;28;20049;-66
2023/09/22 00:29:22;;;;;;;7.35;4.00;;;20.40;54.10;;;;;;5021566;28;20025;-67
2023/09/22 00:31:48;;;;;;;7.90;4.40;;;20.40;54.10;;;;;;5014406;28;20022;-67
2023/09/22 00:34:13;;;;;;;5.72;4.18;;;20.40;54.20;;;;;;5013381;28;20038;-66
2023/09/22 00:36:39;;;;;;;6.03;3.97;;;20.30;54.20;;;;;;5014319;28;20389;-67
2023/09/22 00:39:05;;;;;;;5.15;3.65;;;20.30;54.20;;;;;;5023430;28;20057;-66
2023/09/22 00:41:30;;;;;;;5.03;3.72;;;20.30;54.20;;;;;;5013956;28;20033;-67
2023/09/22 00:43:56;;;;;;;5.50;3.42;;;20.30;54.30;;;;;;5024184;28;20383;-67
2023/09/22 00:46:25;;;;;;;6.10;3.75;;;20.30;54.20;;;;;;5032303;28;20025;-67
2023/09/22 00:48:52;;;;;;;4.90;3.25;;;20.30;54.20;;;;;;5033451;28;20360;-67
2023/09/22 00:51:19;;;;;;;5.30;3.38;;;20.30;54.20;;;;;;5033219;28;20426;-67
2023/09/22 00:53:47;;;;;;;5.97;3.40;;;20.30;54.20;;;;;;5032146;28;20037;-67
2023/09/22 00:56:15;;;;;;;6.97;3.70;;;20.30;54.20;;;;;;5020313;28;20030;-67
2023/09/22 00:58:41;;;;;;;8.90;3.83;;;20.20;54.10;;;;;;5019051;28;20072;-67
2023/09/22 01:01:07;;;;;;;5.90;3.90;;;20.20;54.20;;;;;;5035953;28;20026;-68
2023/09/22 01:03:33;;;;;;;5.95;4.15;;;20.20;54.20;;;;;;5035149;28;20057;-67
2023/09/22 01:05:59;;;;;;;6.88;4.43;;;20.20;54.20;;;;;;5037003;28;20399;-67
2023/09/22 01:08:25;;;;;;;8.18;4.43;;;20.20;54.20;;;;;;5036784;28;20083;-67
2023/09/22 01:10:50;;;;;;;7.18;4.55;;;20.10;54.20;;;;;;5021043;28;20475;-67
2023/09/22 01:13:16;;;;;;;7.93;4.55;;;20.10;54.20;;;;;;5018268;28;20476;-67
2023/09/22 01:15:42;;;;;;;7.50;5.18;;;20.10;54.20;;;;;;5016000;28;20022;-67
2023/09/22 01:18:15;;;;;;;9.25;5.65;;;20.10;54.20;;;;;;5016647;28;20121;-67
2023/09/22 01:20:43;;;;;;;10.45;5.93;;;20.10;54.20;;;;;;5017050;28;20022;-67
2023/09/22 01:23:12;;;;;;;11.85;6.68;;;20.10;54.20;;;;;;5019592;28;20022;-68
2023/09/22 01:25:42;;;;;;;14.00;6.88;;;20.10;54.20;;;;;;5023954;28;20112;-68
2023/09/22 01:28:11;;;;;;;12.32;6.57;;;20.10;54.20;;;;;;5015715;28;20033;-67
2023/09/22 01:30:38;;;;;;;11.63;6.65;;;20.10;54.30;;;;;;5033412;28;20061;-67
2023/09/22 01:33:04;;;;;;;11.93;6.93;;;20.00;54.30;;;;;;5028774;28;20026;-67
2023/09/22 01:35:32;;;;;;;9.88;6.38;;;20.00;54.30;;;;;;5031988;28;20075;-67
2023/09/22 01:38:19;;;;;;;10.75;6.30;;;20.00;54.30;;;;;;5024968;28;20042;-67
2023/09/22 01:40:45;;;;;;;10.52;6.35;;;20.00;54.40;;;;;;5020365;28;20030;-67
2023/09/22 01:43:11;;;;;;;11.25;6.40;;;20.00;54.40;;;;;;5026755;28;20905;-68
2023/09/22 01:45:37;;;;;;;9.77;5.97;;;20.00;54.40;;;;;;5025536;28;20029;-67
2023/09/22 01:48:04;;;;;;;10.45;7.13;;;19.90;54.40;;;;;;5032979;28;20052;-67
2023/09/22 01:50:40;;;;;;;16.92;8.77;;;19.90;54.40;;;;;;5035004;28;20056;-67
2023/09/22 01:53:10;;;;;;;15.15;8.20;;;19.90;54.40;;;;;;5023720;28;20120;-67
2023/09/22 01:55:39;;;;;;;15.57;8.88;;;19.90;54.40;;;;;;5015052;28;20507;-67
2023/09/22 01:58:07;;;;;;;21.85;10.48;;;19.80;54.40;;;;;;5015036;28;20095;-68
2023/09/22 02:00:33;;;;;;;18.02;9.88;;;19.80;54.50;;;;;;5024471;28;20534;-68
2023/09/22 02:03:00;;;;;;;16.95;8.95;;;19.70;54.60;;;;;;5033271;28;20099;-67
2023/09/22 02:05:26;;;;;;;19.08;10.15;;;19.70;54.70;;;;;;5034542;28;20128;-67
2023/09/22 02:07:51;;;;;;;20.35;9.45;;;19.70;54.80;;;;;;5033565;28;20064;-68
2023/09/22 02:10:18;;;;;;;18.90;8.82;;;19.60;54.80;;;;;;5034086;28;20033;-67
2023/09/22 02:12:44;;;;;;;13.55;7.90;;;19.60;54.80;;;;;;5033840;28;20025;-67
2023/09/22 02:15:11;;;;;;;14.73;7.28;;;19.60;54.90;;;;;;5034601;28;20487;-67
2023/09/22 02:17:37;;;;;;;12.48;6.63;;;19.60;54.90;;;;;;5027328;28;20033;-67
2023/09/22 02:20:09;;;;;;;12.00;6.85;;;19.60;55.00;;;;;;5032814;28;20025;-67
2023/09/22 02:22:35;;;;;;;10.85;6.05;;;19.60;55.00;;;;;;5035196;28;20487;-67
2023/09/22 02:25:01;;;;;;;10.07;5.72;;;19.60;55.00;;;;;;5033754;28;20061;-67
2023/09/22 02:27:27;;;;;;;9.85;5.88;;;19.60;55.10;;;;;;5032903;28;20418;-66
2023/09/22 02:29:52;;;;;;;11.30;6.07;;;19.60;55.10;;;;;;5035187;28;20033;-67
2023/09/22 02:32:18;;;;;;;11.85;5.88;;;19.60;55.10;;;;;;5032686;28;20025;-67
2023/09/22 02:34:43;;;;;;;8.95;6.07;;;19.50;55.10;;;;;;5034531;28;20033;-67
2023/09/22 02:37:09;;;;;;;10.38;5.80;;;19.50;55.10;;;;;;5032519;28;20076;-67
2023/09/22 02:39:35;;;;;;;8.18;5.40;;;19.50;55.10;;;;;;5024607;28;20076;-67
2023/09/22 02:42:01;;;;;;;10.80;5.80;;;19.50;55.20;;;;;;5035449;28;20102;-67
2023/09/22 02:44:29;;;;;;;8.73;5.50;;;19.50;55.20;;;;;;5019230;28;20038;-67
2023/09/22 02:46:54;;;;;;;9.43;5.45;;;19.50;55.20;;;;;;5021573;28;20033;-67
2023/09/22 02:49:20;;;;;;;11.75;5.60;;;19.50;55.30;;;;;;5019308;28;20030;-67
2023/09/22 02:51:46;;;;;;;9.45;5.38;;;19.50;55.30;;;;;;5016484;28;20030;-67
2023/09/22 02:54:13;;;;;;;8.93;5.13;;;19.40;55.30;;;;;;5020724;28;20040;-67
2023/09/22 02:56:39;;;;;;;9.50;5.60;;;19.40;55.40;;;;;;5031647;28;20021;-67
2023/09/22 02:59:04;;;;;;;9.75;5.43;;;19.40;55.40;;;;;;5033855;28;20449;-66
2023/09/22 03:01:30;;;;;;;10.57;5.15;;;19.40;55.40;;;;;;5034138;28;20478;-67
2023/09/22 03:03:56;;;;;;;9.25;4.95;;;19.40;55.40;;;;;;5034718;28;20025;-66
2023/09/22 03:06:21;;;;;;;7.65;5.25;;;19.50;55.50;;;;;;5034573;28;20037;-67
2023/09/22 03:08:47;;;;;;;10.63;5.50;;;19.50;55.50;;;;;;5033829;28;20025;-67
2023/09/22 03:11:13;;;;;;;8.02;4.88;;;19.40;55.50;;;;;;5029363;28;20076;-67
2023/09/22 03:13:38;;;;;;;10.15;4.88;;;19.40;55.50;;;;;;5015013;28;20030;-67
2023/09/22 03:16:04;;;;;;;9.82;4.90;;;19.40;55.50;;;;;;5015987;28;20057;-67
2023/09/22 03:18:30;;;;;;;8.32;4.45;;;19.40;55.60;;;;;;5030523;28;20046;-67
2023/09/22 03:20:56;;;;;;;8.30;4.15;;;19.40;55.60;;;;;;5017195;28;20079;-67
2023/09/22 03:23:23;;;;;;;8.63;4.90;;;19.40;55.60;;;;;;5033031;28;20083;-66
2023/09/22 03:25:50;;;;;;;8.40;4.65;;;19.40;55.70;;;;;;5034088;28;20022;-66
2023/09/22 03:28:16;;;;;;;6.68;4.10;;;19.50;55.70;;;;;;5034101;28;20049;-66
2023/09/22 03:30:41;;;;;;;6.55;4.32;;;19.50;55.70;;;;;;5032828;28;20091;-66
2023/09/22 03:33:07;;;;;;;9.15;4.30;;;19.50;55.70;;;;;;5033843;28;20026;-67
2023/09/22 03:35:36;;;;;;;11.65;5.20;;;19.50;55.70;;;;;;5034040;28;20522;-66
2023/09/22 03:38:03;;;;;;;9.05;4.60;;;19.50;55.80;;;;;;5032636;28;20065;-66
2023/09/22 03:40:33;;;;;;;6.55;4.60;;;19.50;55.80;;;;;;5033715;28;20072;-66
2023/09/22 03:43:00;;;;;;;8.85;4.40;;;19.50;55.80;;;;;;5022715;28;20030;-66
2023/09/22 03:45:26;;;;;;;7.43;4.30;;;19.60;55.90;;;;;;5021455;28;20038;-66
2023/09/22 03:47:51;;;;;;;8.20;4.05;;;19.60;55.90;;;;;;5015130;28;20030;-67
2023/09/22 03:50:17;;;;;;;7.07;4.30;;;19.50;55.90;;;;;;5013010;28;20080;-66
2023/09/22 03:52:43;;;;;;;7.03;4.53;;;19.60;56.00;;;;;;5016192;28;20033;-66
2023/09/22 03:55:12;;;;;;;6.20;3.70;;;19.60;56.00;;;;;;5017550;28;20439;-67
2023/09/22 03:57:38;;;;;;;7.28;3.90;;;19.70;56.00;;;;;;5018385;28;20460;-66
2023/09/22 04:00:07;;;;;;;24.73;16.95;;;19.70;56.00;;;;;;5031675;28;20124;-66
2023/09/22 04:02:32;;;;;;;22.10;15.15;;;19.70;56.00;;;;;;5018567;28;20049;-66
2023/09/22 04:04:58;;;;;;;20.95;14.90;;;19.80;56.00;;;;;;5014090;28;20075;-66
2023/09/22 04:07:24;;;;;;;15.27;10.60;;;19.80;56.00;;;;;;5020985;28;20060;-66
2023/09/22 04:09:50;;;;;;;21.60;16.17;;;19.80;55.90;;;;;;5029853;28;20033;-66
2023/09/22 04:12:16;;;;;;;23.00;13.48;;;19.80;55.90;;;;;;5012908;28;20029;-68
2023/09/22 04:14:42;;;;;;;15.45;9.63;;;19.80;55.90;;;;;;5012573;28;20093;-68
2023/09/22 04:17:10;;;;;;;15.23;6.93;;;19.80;55.90;;;;;;5024054;28;20036;-67
2023/09/22 04:19:37;;;;;;;9.70;6.18;;;19.90;55.90;;;;;;5033336;28;20035;-66
2023/09/22 04:22:02;;;;;;;9.25;5.40;;;19.90;55.90;;;;;;5025001;28;20492;-70
2023/09/22 04:24:34;;;;;;;7.00;4.60;;;19.90;55.90;;;;;;5013930;28;20033;-69
2023/09/22 04:27:01;;;;;;;8.35;4.60;;;19.90;55.90;;;;;;5014017;28;20026;-66
2023/09/22 04:29:27;;;;;;;6.40;4.68;;;20.00;55.90;;;;;;5013917;28;20030;-66
2023/09/22 04:31:53;;;;;;;5.53;4.20;;;20.00;55.90;;;;;;5029182;28;20128;-66
2023/09/22 04:34:19;;;;;;;8.23;4.78;;;20.10;56.30;;;;;;5035866;28;20037;-66
2023/09/22 04:36:46;;;;;;;5.93;3.95;;;20.20;57.10;;;;;;5037529;28;20472;-66
2023/09/22 04:39:14;;;;;;;9.27;4.95;;;20.30;56.60;;;;;;5024479;28;20541;-67
2023/09/22 04:41:40;;;;;;;10.63;5.35;;;20.40;56.20;;;;;;5021184;28;20037;-67
2023/09/22 04:44:06;;;;;;;9.32;5.45;;;20.40;56.30;;;;;;5028689;28;20049;-67
2023/09/22 04:46:33;;;;;;;10.57;5.30;;;20.50;56.50;;;;;;5036144;28;20391;-67
2023/09/22 04:48:59;;;;;;;9.25;5.72;;;20.60;56.50;;;;;;5046228;28;20467;-68
2023/09/22 04:51:27;;;;;;;8.48;5.30;;;20.70;56.60;;;;;;5045437;28;20128;-67
2023/09/22 04:53:53;;;;;;;10.00;5.65;;;20.80;56.60;;;;;;5047501;28;20523;-67
2023/09/22 04:56:20;;;;;;;8.70;5.63;;;20.80;56.50;;;;;;5045479;28;20113;-67
2023/09/22 04:58:47;;;;;;;10.38;5.28;;;20.90;56.50;;;;;;5045287;28;20124;-67
2023/09/22 05:01:14;;;;;;;7.78;4.80;;;20.90;56.40;;;;;;5042812;28;20113;-66
2023/09/22 05:03:40;;;;;;;9.77;5.35;;;21.00;56.40;;;;;;5032001;28;20068;-68
2023/09/22 05:06:09;;;;;;;8.60;5.00;;;21.10;56.40;;;;;;5035901;28;20069;-66
2023/09/22 05:08:37;;;;;;;11.95;5.10;;;21.10;56.30;;;;;;5037071;28;20060;-65
2023/09/22 05:11:05;;;;;;;9.65;4.93;;;21.20;56.40;;;;;;5036791;28;20040;-68
2023/09/22 05:13:31;;;;;;;6.85;4.50;;;21.20;56.40;;;;;;5035383;28;20028;-66
2023/09/22 05:16:10;;;;;;;7.03;4.28;;;21.30;56.50;;;;;;5035565;28;20052;-67
2023/09/22 05:18:36;;;;;;;9.95;4.50;;;21.40;56.40;;;;;;5035830;28;20095;-67
2023/09/22 05:21:02;;;;;;;7.60;4.28;;;21.40;56.20;;;;;;5033250;28;20030;-67
2023/09/22 05:23:32;;;;;;;7.55;4.43;;;21.50;56.20;;;;;;5015506;28;20030;-66
2023/09/22 05:25:58;;;;;;;8.90;4.25;;;21.60;56.10;;;;;;5015190;28;20022;-66
2023/09/22 05:28:24;;;;;;;8.52;4.10;;;21.70;56.10;;;;;;5015691;28;20049;-66
2023/09/22 05:30:50;;;;;;;7.07;4.15;;;21.70;55.90;;;;;;5016901;28;20072;-66
2023/09/22 05:33:15;;;;;;;7.88;4.18;;;21.80;55.90;;;;;;5016544;28;20072;-66
2023/09/22 05:35:41;;;;;;;8.43;4.22;;;21.90;55.80;;;;;;5016644;28;20030;-66
2023/09/22 05:38:09;;;;;;;8.07;4.30;;;21.90;55.70;;;;;;5016528;28;20460;-66
2023/09/22 05:40:35;;;;;;;6.32;3.92;;;22.00;55.60;;;;;;5016335;28;20037;-66
2023/09/22 05:43:03;;;;;;;7.15;4.07;;;22.10;55.50;;;;;;5016219;28;20037;-66
2023/09/22 05:45:29;;;;;;;7.80;3.63;;;22.20;55.50;;;;;;5016534;28;20022;-66
2023/09/22 05:47:55;;;;;;;7.68;3.58;;;22.20;55.30;;;;;;4998934;28;20040;-66
2023/09/22 05:50:23;;;;;;;4.95;3.38;;;22.30;55.30;;;;;;5016287;28;20036;-66
2023/09/22 05:52:49;;;;;;;7.68;3.70;;;22.30;55.20;;;;;;5016278;28;20021;-66
2023/09/22 05:55:15;;;;;;;6.20;3.72;;;22.40;55.10;;;;;;5016042;28;20026;-66
2023/09/22 05:57:41;;;;;;;6.40;3.45;;;22.40;55.10;;;;;;5016194;28;20068;-66
2023/09/22 06:00:15;;;;;;;7.03;3.42;;;22.50;55.20;;;;;;5016171;28;20038;-66
2023/09/22 06:02:44;;;;;;;5.85;3.05;;;22.50;55.00;;;;;;5016505;28;20057;-66
2023/09/22 06:05:10;;;;;;;4.20;3.30;;;22.60;54.90;;;;;;5016232;28;20026;-66
2023/09/22 06:07:35;;;;;;;4.07;3.13;;;22.60;54.90;;;;;;5016256;28;20456;-67
2023/09/22 06:10:05;;;;;;;4.88;2.95;;;22.60;54.80;;;;;;5019637;28;20446;-67
2023/09/22 06:12:31;;;;;;;6.72;2.92;;;22.70;54.80;;;;;;5026635;28;20034;-66
2023/09/22 06:14:59;;;;;;;5.05;2.92;;;22.70;54.80;;;;;;5015718;28;20065;-68
2023/09/22 06:17:25;;;;;;;6.68;3.20;;;22.80;54.70;;;;;;5020514;28;20033;-67
2023/09/22 06:19:52;;;;;;;6.20;3.10;;;22.90;54.70;;;;;;5034488;28;20025;-67
2023/09/22 06:22:17;;;;;;;6.97;4.40;;;22.90;54.60;;;;;;5025085;28;20030;-66
2023/09/22 06:24:43;;;;;;;4.63;3.13;;;22.90;54.60;;;;;;5015956;28;20022;-68
2023/09/22 06:27:08;;;;;;;5.72;3.00;;;22.90;54.50;;;;;;5016451;28;20022;-67
2023/09/22 06:29:34;;;;;;;3.47;2.50;;;23.00;54.50;;;;;;5015795;28;20380;-66
2023/09/22 06:32:00;;;;;;;3.88;2.60;;;23.00;54.40;;;;;;5015998;28;20157;-73
2023/09/22 06:34:25;;;;;;;3.80;2.60;;;23.10;54.50;;;;;;5015679;28;20446;-71
2023/09/22 06:36:51;;;;;;;6.38;3.08;;;23.10;54.40;;;;;;5023022;28;20034;-72
2023/09/22 06:39:17;;;;;;;4.40;2.70;;;23.10;54.40;;;;;;5017390;28;20052;-71
2023/09/22 06:41:42;;;;;;;5.18;2.42;;;23.20;54.40;;;;;;5016336;28;20037;-71
2023/09/22 06:44:08;;;;;;;4.20;2.80;;;23.20;54.40;;;;;;5015471;28;20022;-72
2023/09/22 06:46:35;;;;;;;3.47;2.53;;;23.20;54.40;;;;;;5015485;28;20022;-72
2023/09/22 06:49:05;;;;;;;3.80;3.08;;;23.30;54.40;;;;;;5021617;28;20376;-72
2023/09/22 06:51:31;;;;;;;5.70;3.22;;;23.30;54.40;;;;;;5018163;28;20042;-72
2023/09/22 06:53:57;;;;;;;3.17;2.60;;;23.20;54.40;;;;;;5031294;28;20440;-73
2023/09/22 06:56:23;;;;;;;4.65;2.88;;;23.30;54.50;;;;;;5026066;28;20061;-72
2023/09/22 06:58:49;;;;;;;4.97;2.83;;;23.30;55.20;;;;;;5013829;28;20472;-73
2023/09/22 07:01:16;;;;;;;7.22;3.97;;;23.30;54.60;;;;;;5019745;28;20129;-73
2023/09/22 07:03:44;;;;;;;5.55;3.35;;;23.30;54.60;;;;;;5013523;28;20392;-73
2023/09/22 07:06:15;;;;;;;4.65;3.08;;;23.30;54.60;;;;;;5027113;28;20040;-73
2023/09/22 07:08:43;;;;;;;4.38;2.85;;;23.30;54.60;;;;;;5018062;28;20026;-73
2023/09/22 07:11:10;;;;;;;5.80;3.42;;;23.30;54.60;;;;;;5026153;28;20079;-73
2023/09/22 07:13:36;;;;;;;10.05;3.67;;;23.40;54.70;;;;;;5034185;28;20446;-73
2023/09/22 07:16:02;;;;;;;6.68;3.50;;;23.40;54.70;;;;;;5027008;28;21436;-73
2023/09/22 07:18:29;;;;;;;4.43;3.10;;;23.40;54.70;;;;;;5032462;28;20060;-73
2023/09/22 07:20:55;;;;;;;6.60;3.80;;;23.50;54.80;;;;;;5023653;28;20033;-72
2023/09/22 07:23:21;;;;;;;5.72;3.60;;;23.50;54.70;;;;;;5016435;28;20030;-72
2023/09/22 07:26:00;;;;;;;7.30;3.30;;;23.40;54.70;;;;;;5030253;28;20041;-72
2023/09/22 07:28:27;;;;;;;4.95;3.08;;;23.50;54.80;;;;;;5026363;28;20444;-73
2023/09/22 07:30:53;;;;;;;6.18;3.30;;;23.50;54.80;;;;;;5014408;28;20029;-74
2023/09/22 07:33:19;;;;;;;4.07;3.33;;;23.50;55.00;;;;;;5014800;28;20469;-74
2023/09/22 07:35:48;;;;;;;3.90;2.92;;;23.60;55.30;;;;;;5014318;28;20041;-73
2023/09/22 07:38:15;;;;;;;3.70;3.15;;;23.60;55.50;;;;;;5023607;28;20026;-73
2023/09/22 07:40:41;;;;;;;6.00;3.60;;;23.60;55.70;;;;;;5030692;28;20033;-73
2023/09/22 07:43:06;;;;;;;6.07;3.88;;;23.60;55.80;;;;;;5050231;28;20091;-73
2023/09/22 07:45:32;;;;;;;4.28;3.53;;;23.60;56.10;;;;;;5022138;28;20366;-72
2023/09/22 07:47:58;;;;;;;6.38;3.45;;;23.60;56.30;;;;;;5014485;28;20488;-72
2023/09/22 07:50:23;;;;;;;6.47;4.05;;;23.70;56.50;;;;;;5013938;28;20018;-72
2023/09/22 07:52:49;;;;;;;4.68;3.95;;;23.70;56.60;;;;;;5030936;28;20033;-71
2023/09/22 07:55:15;;;;;;;7.63;4.35;;;23.70;56.80;;;;;;5026945;28;20392;-73
2023/09/22 07:57:41;;;;;;;5.47;4.03;;;23.70;57.20;;;;;;5018987;28;20037;-71
2023/09/22 08:00:10;;;;;;;43.45;38.47;;;23.70;57.30;;;;;;5026935;28;20103;-72
2023/09/22 08:02:36;;;;;;;6.15;4.38;;;23.70;57.30;;;;;;5031442;28;20045;-73
2023/09/22 08:05:02;;;;;;;5.63;3.90;;;23.70;57.30;;;;;;5022024;28;20036;-74
2023/09/22 08:07:28;;;;;;;4.38;3.80;;;23.80;57.40;;;;;;5015739;28;20418;-73
2023/09/22 08:09:54;;;;;;;5.85;3.88;;;23.80;57.40;;;;;;5017940;28;20075;-72
2023/09/22 08:12:19;;;;;;;4.43;3.75;;;23.90;57.30;;;;;;5034443;28;20491;-72
2023/09/22 08:14:45;;;;;;;4.68;3.50;;;23.90;57.20;;;;;;5021056;28;20045;-73
2023/09/22 08:17:10;;;;;;;5.05;3.63;;;23.90;57.10;;;;;;5013651;28;20026;-74
2023/09/22 08:19:36;;;;;;;4.50;3.58;;;23.90;57.10;;;;;;5013739;28;20044;-74
2023/09/22 08:22:02;;;;;;;5.35;3.53;;;23.90;57.10;;;;;;5013747;28;20109;-72
2023/09/22 08:24:28;;;;;;;4.93;3.42;;;23.90;57.10;;;;;;5014607;28;20057;-72
2023/09/22 08:26:55;;;;;;;6.80;3.55;;;24.00;57.20;;;;;;5012613;28;20053;-73
2023/09/22 08:29:22;;;;;;;7.60;3.83;;;24.00;57.10;;;;;;5024190;28;20091;-72
2023/09/22 08:31:48;;;;;;;4.57;3.67;;;24.00;57.00;;;;;;5033334;28;20030;-72
2023/09/22 08:34:14;;;;;;;3.75;3.20;;;24.00;57.00;;;;;;5031732;28;20040;-72
2023/09/22 08:36:40;;;;;;;5.28;3.60;;;24.00;57.00;;;;;;5032060;28;20025;-73
2023/09/22 08:39:08;;;;;;;4.53;3.55;;;24.00;57.00;;;;;;5028124;28;20052;-72
2023/09/22 08:41:37;;;;;;;7.40;3.78;;;24.00;57.00;;;;;;5024652;28;20041;-72
2023/09/22 08:44:05;;;;;;;4.10;3.38;;;24.00;57.00;;;;;;5032320;28;20029;-72
2023/09/22 08:46:33;;;;;;;5.03;3.20;;;24.00;57.00;;;;;;5013725;28;20073;-74
2023/09/22 08:48:58;;;;;;;3.55;2.95;;;24.00;56.90;;;;;;5013717;28;20034;-73
2023/09/22 08:51:24;;;;;;;5.20;3.50;;;24.00;56.90;;;;;;5014026;28;20084;-73
2023/09/22 08:53:53;;;;;;;5.20;3.13;;;24.00;56.70;;;;;;5013505;28;20435;-73
2023/09/22 08:56:21;;;;;;;4.22;3.10;;;24.10;56.50;;;;;;5012256;28;20064;-73
2023/09/22 08:58:47;;;;;;;4.45;2.80;;;24.10;56.50;;;;;;5032898;28;20030;-72
2023/09/22 09:01:13;;;;;;;4.78;3.35;;;24.10;56.40;;;;;;5033113;28;20109;-73
2023/09/22 09:03:39;;;;;;;4.18;3.08;;;24.10;56.40;;;;;;5032007;28;20049;-73
2023/09/22 09:06:09;;;;;;;3.55;2.95;;;24.10;56.30;;;;;;5023042;28;20026;-73
2023/09/22 09:08:35;;;;;;;4.05;3.05;;;24.10;56.10;;;;;;5012057;28;20125;-73
2023/09/22 09:11:10;;;;;;;3.42;3.13;;;24.10;56.00;;;;;;5014308;28;20139;-73
2023/09/22 09:13:37;;;;;;;3.53;2.90;;;24.20;55.80;;;;;;5012185;28;20438;-73
2023/09/22 09:16:07;;;;;;;3.45;2.75;;;24.20;55.60;;;;;;5011998;28;20026;-73
2023/09/22 09:18:34;;;;;;;5.43;2.75;;;24.20;55.50;;;;;;5015758;28;20037;-72
2023/09/22 09:21:07;;;;;;;3.70;2.83;;;24.20;55.40;;;;;;5017180;28;20504;-73
2023/09/22 09:23:32;;;;;;;3.15;2.85;;;24.20;55.30;;;;;;5017721;28;20029;-72
2023/09/22 09:25:58;;;;;;;3.33;2.85;;;24.20;55.30;;;;;;5017998;28;20134;-72
2023/09/22 09:28:25;;;;;;;2.85;2.60;;;24.20;55.40;;;;;;5017078;28;20037;-72
2023/09/22 09:30:58;;;;;;;3.65;3.00;;;24.20;55.40;;;;;;5015616;28;20179;-73
2023/09/22 09:33:27;;;;;;;3.10;2.80;;;24.20;55.40;;;;;;5016937;28;20037;-72
2023/09/22 09:35:55;;;;;;;2.90;2.58;;;24.20;55.30;;;;;;5018072;28;20267;-72
2023/09/22 09:38:29;;;;;;;8.13;2.88;;;24.20;55.20;;;;;;5032491;28;20073;-72
2023/09/22 09:40:58;;;;;;;3.43;2.70;;;24.20;55.10;;;;;;5014911;28;20115;-72
2023/09/22 09:43:24;;;;;;;3.38;2.95;;;24.20;55.10;;;;;;5018579;28;20343;-73
2023/09/22 09:45:57;;;;;;;5.25;2.88;;;24.20;55.00;;;;;;5025801;28;20109;-73
2023/09/22 09:48:24;;;;;;;3.15;2.70;;;24.20;54.90;;;;;;5015408;28;20029;-73
2023/09/22 09:50:57;;;;;;;3.38;2.95;;;24.30;54.80;;;;;;5015165;28;20465;-72
2023/09/22 09:53:27;;;;;;;2.95;2.70;;;24.30;54.80;;;;;;5015015;28;20032;-72
2023/09/22 09:55:59;;;;;;;3.25;2.90;;;24.30;54.70;;;;;;5014910;28;20029;-73
2023/09/22 09:58:32;;;;;;;3.15;2.47;;;24.30;54.60;;;;;;5017528;28;20034;-72
2023/09/22 10:01:05;;;;;;;3.10;2.80;;;24.30;54.50;;;;;;5032187;28;20453;-73
2023/09/22 10:03:31;;;;;;;2.70;2.50;;;24.40;54.40;;;;;;5035536;28;20045;-73
2023/09/22 10:05:58;;;;;;;4.25;2.90;;;24.40;54.40;;;;;;5035757;28;20468;-71
2023/09/22 10:08:26;;;;;;;3.08;2.33;;;24.40;54.30;;;;;;5032614;28;20091;-71
2023/09/22 10:11:00;;;;;;;3.00;2.70;;;24.40;54.30;;;;;;5034273;28;20040;-72
2023/09/22 10:13:27;;;;;;;3.03;2.70;;;24.40;54.30;;;;;;5034860;28;20033;-73
2023/09/22 10:15:57;;;;;;;2.80;2.50;;;24.40;54.30;;;;;;5035434;28;20115;-72
2023/09/22 10:18:44;;;;;;;2.65;2.40;;;24.40;54.20;;;;;;5035350;28;20040;-73
2023/09/22 10:21:33;;;;;;;2.78;2.30;;;24.40;54.10;;;;;;5033900;28;20022;-72
2023/09/22 10:24:17;;;;;;;3.00;2.40;;;24.50;53.90;;;;;;5034860;28;20030;-72
2023/09/22 10:27:03;;;;;;;3.17;2.67;;;24.50;53.80;;;;;;5035581;28;20537;-72
2023/09/22 10:29:35;;;;;;;2.70;2.50;;;24.50;53.80;;;;;;5032396;28;20552;-72
2023/09/22 10:32:19;;;;;;;4.07;2.65;;;24.50;53.70;;;;;;5015388;28;20072;-72
2023/09/22 10:34:51;;;;;;;3.05;2.47;;;24.60;53.70;;;;;;5015481;28;20045;-72
2023/09/22 10:37:18;;;;;;;3.55;2.55;;;24.60;53.70;;;;;;5016209;28;20092;-72
2023/09/22 10:39:57;;;;;;;2.85;2.22;;;24.60;53.60;;;;;;5027589;28;20022;-72
2023/09/22 10:42:24;;;;;;;2.70;2.30;;;24.60;53.50;;;;;;5015196;28;20468;-72
2023/09/22 10:45:01;;;;;;;3.00;2.33;;;24.70;53.60;;;;;;5024480;28;20030;-72
2023/09/22 10:47:46;;;;;;;2.47;2.28;;;24.60;53.40;;;;;;5033778;28;20021;-72
2023/09/22 10:50:18;;;;;;;3.00;2.30;;;24.70;53.40;;;;;;5034994;28;20083;-72
2023/09/22 10:52:53;;;;;;;3.83;2.20;;;24.70;53.40;;;;;;5033813;28;20021;-73
2023/09/22 10:55:44;;;;;;;2.53;2.33;;;24.70;53.90;;;;;;5035090;28;20040;-72
2023/09/22 10:58:21;;;;;;;2.10;2.00;;;24.70;53.30;;;;;;5014125;28;20443;-72
2023/09/22 11:01:04;;;;;;;2.53;2.33;;;24.70;53.20;;;;;;5015220;28;20025;-72
2023/09/22 11:03:35;;;;;;;2.50;2.30;;;24.80;53.20;;;;;;5015270;28;20048;-73
2023/09/22 11:06:10;;;;;;;2.38;2.17;;;24.80;53.20;;;;;;5015196;28;20025;-72
2023/09/22 11:08:50;;;;;;;2.22;2.03;;;24.80;53.10;;;;;;5022466;28;20045;-73
2023/09/22 11:11:17;;;;;;;3.03;2.38;;;24.80;53.10;;;;;;5027178;28;20460;-72
2023/09/22 11:13:54;;;;;;;2.40;2.20;;;24.80;53.00;;;;;;5014549;28;20057;-72
2023/09/22 11:16:21;;;;;;;2.53;2.10;;;24.90;53.00;;;;;;5016048;28;20025;-72
2023/09/22 11:18:48;;;;;;;3.88;2.50;;;24.90;53.00;;;;;;5014807;28;20038;-72
2023/09/22 11:21:14;;;;;;;4.75;2.30;;;24.90;53.00;;;;;;5027801;28;20029;-72
2023/09/22 11:23:41;;;;;;;1.95;1.75;;;24.90;52.90;;;;;;5032249;28;20372;-72
2023/09/22 11:26:12;;;;;;;2.92;2.38;;;25.00;52.90;;;;;;5034376;28;20529;-72
2023/09/22 11:28:41;;;;;;;2.35;2.15;;;24.90;52.70;;;;;;5032575;28;20033;-72
2023/09/22 11:31:15;;;;;;;3.90;2.45;;;25.00;52.80;;;;;;5032596;28;20061;-72
2023/09/22 11:33:41;;;;;;;;;;;25.00;52.70;;;;;;5032752;28;20035;-72
2023/09/22 11:36:08;;;;;;;3.58;2.50;;;25.00;52.50;;;;;;5021879;28;19967;-72
2023/09/22 11:38:35;;;;;;;2.30;2.10;;;25.00;52.60;;;;;;5015753;28;20481;-73
2023/09/22 11:41:14;;;;;;;2.60;2.28;;;25.10;52.60;;;;;;5015180;28;20109;-72
2023/09/22 11:43:41;;;;;;;3.47;2.15;;;25.10;52.60;;;;;;5022373;28;20030;-72
2023/09/22 11:46:15;;;;;;;2.20;2.00;;;25.10;52.60;;;;;;5032376;28;20062;-72
2023/09/22 11:49:07;;;;;;;2.70;2.10;;;25.10;52.50;;;;;;5033857;28;20025;-72
2023/09/22 11:51:51;;;;;;;2.58;2.33;;;25.10;52.40;;;;;;5022225;28;20124;-72
2023/09/22 11:54:19;;;;;;;2.55;2.20;;;25.10;52.40;;;;;;5014014;28;20038;-73
2023/09/22 11:56:46;;;;;;;3.53;2.20;;;25.20;52.50;;;;;;5014169;28;20060;-71
2023/09/22 11:59:13;;;;;;;2.30;2.05;;;25.20;52.40;;;;;;5021158;28;20043;-72
2023/09/22 12:01:40;;;;;;;2.55;2.00;;;25.20;52.30;;;;;;5033311;28;20383;-72
2023/09/22 12:04:06;;;;;;;2.33;2.13;;;25.20;52.30;;;;;;5033316;28;20037;-71
2023/09/22 12:06:32;;;;;;;2.45;2.25;;;25.20;52.30;;;;;;5018151;28;20065;-72
2023/09/22 12:08:59;;;;;;;2.60;2.40;;;25.30;52.30;;;;;;5015056;28;20061;-72
2023/09/22 12:11:25;;;;;;;2.78;2.40;;;25.30;52.30;;;;;;5014492;28;20456;-72
2023/09/22 12:13:51;;;;;;;2.75;2.45;;;25.30;52.30;;;;;;5013808;28;20076;-71
2023/09/22 12:16:17;;;;;;;2.28;2.08;;;25.30;52.20;;;;;;5014593;28;20061;-71
2023/09/22 12:18:43;;;;;;;2.40;2.20;;;25.30;52.20;;;;;;5013434;28;20073;-73
2023/09/22 12:21:08;;;;;;;2.75;2.30;;;25.30;52.20;;;;;;5013901;28;20034;-72
2023/09/22 12:23:34;;;;;;;2.60;2.40;;;25.30;52.20;;;;;;5013963;28;20034;-73
2023/09/22 12:26:02;;;;;;;3.30;2.45;;;25.30;52.20;;;;;;5014773;28;20026;-71
2023/09/22 12:28:29;;;;;;;2.28;2.08;;;25.40;52.20;;;;;;5020451;28;20099;-72
2023/09/22 12:30:54;;;;;;;2.83;2.20;;;25.40;52.20;;;;;;5033554;28;20055;-71
2023/09/22 12:33:20;;;;;;;2.50;2.30;;;25.50;52.20;;;;;;5033377;28;20029;-71
2023/09/22 12:35:54;;;;;;;2.30;2.10;;;25.50;52.10;;;;;;5033184;28;20049;-71
2023/09/22 12:38:20;;;;;;;2.90;2.33;;;25.50;52.10;;;;;;5022687;28;20033;-71
2023/09/22 12:40:46;;;;;;;4.80;2.55;;;25.60;52.10;;;;;;5031464;28;20048;-71
2023/09/22 12:43:12;;;;;;;2.47;2.28;;;25.60;52.00;;;;;;5028568;28;20022;-71
2023/09/22 12:45:39;;;;;;;3.03;2.47;;;25.70;52.00;;;;;;5013254;28;20376;-72
2023/09/22 12:48:04;;;;;;;3.15;2.20;;;25.70;51.90;;;;;;5013570;28;20037;-72